Time;durP1;ratioP1;P1;durP2;ratioP2;P2;SDS_P1;SDS_P2;PMS_P1;PMS_P2;Temp;Humidity;BMP_temperature;BMP_pressure;BME280_temperature;BME280_humidity;BME280_pressure;Samples;Min_cycle;Max_cycle;Signal;HPM_P1;HPM_P2
2022/12/06 00:01:12;;;;;;;;;;;;;;;9.76;74.24;95803.63;5115504;28;1097;-70
2022/12/06 00:03:38;;;;;;;;;;;;;;;9.68;74.78;95804.31;5115663;28;1085;-70
2022/12/06 00:06:09;;;;;;;;;;;;;;;9.70;74.92;95807.69;5115658;28;956;-70
2022/12/06 00:08:36;;;;;;;;;;;;;;;9.72;74.59;95803.06;5115416;28;1065;-70
2022/12/06 00:11:13;;;;;;;;;;;;;;;9.68;75.05;95800.81;5097379;28;1041;-71
2022/12/06 00:13:39;;;;;;;;;;;;;;;9.80;74.76;95801.50;5114948;28;1009;-70
2022/12/06 00:16:06;;;;;;;;;;;;;;;9.85;74.40;95804.63;5097091;28;1980;-70
2022/12/06 00:18:34;;;;;;;;;;;;;;;9.87;74.38;95808.00;5115385;28;989;-70
2022/12/06 00:21:09;;;;;;;;;;;;;;;9.85;74.54;95807.28;5115281;28;969;-70
2022/12/06 00:23:39;;;;;;;;;;;;;;;9.70;75.48;95807.69;5115114;28;1104;-70
2022/12/06 00:26:05;;;;;;;;;;;;;;;9.60;76.04;95804.19;5115016;28;1206;-70
2022/12/06 00:28:32;;;;;;;;;;;;;;;9.70;76.05;95805.03;5114868;28;1109;-70
2022/12/06 00:30:59;;;;;;;;;;;;;;;9.85;75.61;95804.63;5115154;28;1017;-70
2022/12/06 00:33:25;;;;;;;;;;;;;;;9.92;75.49;95803.91;5115152;28;1076;-70
2022/12/06 00:35:55;;;;;;;;;;;;;;;9.96;75.13;95810.66;5114970;28;1909;-70
2022/12/06 00:38:21;;;;;;;;;;;;;;;9.98;75.00;95813.19;5114777;28;1220;-70
2022/12/06 00:40:47;;;;;;;;;;;;;;;9.94;75.21;95809.09;5096667;28;1024;-70
2022/12/06 00:43:13;;;;;;;;;;;;;;;9.97;75.11;95806.97;5096996;28;961;-70
2022/12/06 00:45:39;;;;;;;;;;;;;;;9.99;75.02;95812.19;5114986;28;1040;-70
2022/12/06 00:48:05;;;;;;;;;;;;;;;9.96;74.69;95815.16;5114692;28;1258;-70
2022/12/06 00:50:31;;;;;;;;;;;;;;;9.88;74.75;95813.16;5114658;28;992;-70
2022/12/06 00:52:57;;;;;;;;;;;;;;;9.84;74.94;95811.75;5096668;28;1040;-70
2022/12/06 00:55:23;;;;;;;;;;;;;;;9.85;74.77;95810.78;5114463;28;1093;-70
2022/12/06 00:57:49;;;;;;;;;;;;;;;9.83;74.79;95810.09;5114224;28;1906;-70
2022/12/06 01:00:16;;;;;;;;;;;;;;;9.82;74.76;95799.53;5114708;28;1040;-70
2022/12/06 01:02:42;;;;;;;;;;;;;;;9.82;74.71;95803.06;5114493;28;1020;-70
2022/12/06 01:05:08;;;;;;;;;;;;;;;9.74;75.33;95795.75;5114471;28;1028;-70
2022/12/06 01:07:34;;;;;;;;;;;;;;;9.71;75.68;95787.16;5114236;28;1064;-70
2022/12/06 01:10:00;;;;;;;;;;;;;;;9.70;75.77;95790.84;5114221;28;934;-70
2022/12/06 01:12:26;;;;;;;;;;;;;;;9.64;75.93;95794.91;5114108;28;1021;-70
2022/12/06 01:14:52;;;;;;;;;;;;;;;9.54;76.23;95781.56;5114411;28;1017;-70
2022/12/06 01:17:18;;;;;;;;;;;;;;;9.61;76.23;95783.66;5114212;28;2005;-70
2022/12/06 01:19:44;;;;;;;;;;;;;;;9.63;75.56;95777.19;5096263;28;1712;-70
2022/12/06 01:22:10;;;;;;;;;;;;;;;9.71;75.23;95768.47;5095966;28;1115;-70
2022/12/06 01:24:36;;;;;;;;;;;;;;;9.78;75.04;95769.59;5113383;28;1056;-70
2022/12/06 01:27:03;;;;;;;;;;;;;;;9.73;75.75;95775.38;5095701;28;1242;-70
2022/12/06 01:29:29;;;;;;;;;;;;;;;9.79;75.63;95765.97;5096077;28;973;-70
2022/12/06 01:31:55;;;;;;;;;;;;;;;9.82;75.19;95768.34;5095909;28;1124;-70
2022/12/06 01:34:21;;;;;;;;;;;;;;;9.78;75.21;95765.09;5095807;28;1120;-70
2022/12/06 01:36:48;;;;;;;;;;;;;;;9.83;74.92;95764.69;5113773;28;1914;-70
2022/12/06 01:39:14;;;;;;;;;;;;;;;9.84;74.95;95763.69;5113887;28;1157;-70
2022/12/06 01:41:40;;;;;;;;;;;;;;;9.83;74.86;95766.53;5113638;28;1109;-70
2022/12/06 01:44:26;;;;;;;;;;;;;;;9.84;75.31;95763.69;5095945;28;1029;-70
2022/12/06 01:46:53;;;;;;;;;;;;;;;9.87;75.12;95760.75;5113344;28;1214;-70
2022/12/06 01:49:23;;;;;;;;;;;;;;;9.86;74.84;95755.53;5095745;28;1001;-70
2022/12/06 01:51:55;;;;;;;;;;;;;;;9.89;74.64;95756.09;5095544;28;1116;-70
2022/12/06 01:54:22;;;;;;;;;;;;;;;9.72;75.66;95759.50;5113731;28;1097;-70
2022/12/06 01:56:50;;;;;;;;;;;;;;;9.46;76.97;95759.19;5113637;28;1911;-70
2022/12/06 01:59:16;;;;;;;;;;;;;;;9.54;76.98;95762.88;5113848;28;1012;-69
2022/12/06 02:01:42;;;;;;;;;;;;;;;9.60;76.88;95755.25;5113731;28;1009;-70
2022/12/06 02:04:08;;;;;;;;;;;;;;;9.61;76.72;95754.28;5113680;28;1004;-70
2022/12/06 02:06:34;;;;;;;;;;;;;;;9.70;76.82;95753.44;5113463;28;977;-70
2022/12/06 02:09:02;;;;;;;;;;;;;;;9.76;76.39;95759.06;5095739;28;1033;-70
2022/12/06 02:11:28;;;;;;;;;;;;;;;9.80;76.06;95756.94;5095611;28;1048;-70
2022/12/06 02:13:55;;;;;;;;;;;;;;;9.84;76.08;95747.66;5113491;28;1116;-70
2022/12/06 02:16:21;;;;;;;;;;;;;;;9.85;75.75;95744.03;5113381;28;1988;-70
2022/12/06 02:18:47;;;;;;;;;;;;;;;9.81;75.98;95736.41;5113367;28;1029;-70
2022/12/06 02:21:19;;;;;;;;;;;;;;;9.83;75.91;95739.81;5113321;28;1043;-70
2022/12/06 02:23:57;;;;;;;;;;;;;;;9.85;75.48;95737.84;5113335;28;1073;-69
2022/12/06 02:26:23;;;;;;;;;;;;;;;9.80;75.98;95738.25;5113177;28;1215;-69
2022/12/06 02:28:49;;;;;;;;;;;;;;;9.85;76.13;95729.84;5095403;28;969;-70
2022/12/06 02:31:48;;;;;;;;;;;;;;;9.91;75.57;95731.94;5113390;28;1063;-70
2022/12/06 02:34:32;;;;;;;;;;;;;;;9.90;75.20;95728.41;5057839;28;1256;-70
2022/12/06 02:37:08;;;;;;;;;;;;;;;9.86;75.67;95727.00;5097890;28;1902;-70
2022/12/06 02:39:38;;;;;;;;;;;;;;;9.83;75.84;95724.63;5116975;28;1153;-70
2022/12/06 02:42:09;;;;;;;;;;;;;;;9.81;76.20;95725.72;5117058;28;1210;-70
2022/12/06 02:44:38;;;;;;;;;;;;;;;9.76;76.40;95720.84;5117054;28;1029;-70
2022/12/06 02:47:06;;;;;;;;;;;;;;;9.81;76.01;95723.06;5117231;28;1025;-70
2022/12/06 02:49:33;;;;;;;;;;;;;;;9.83;76.00;95723.78;5116910;28;1074;-70
2022/12/06 02:52:00;;;;;;;;;;;;;;;9.83;75.82;95727.31;5117057;28;1009;-70
2022/12/06 02:54:27;;;;;;;;;;;;;;;9.78;76.22;95732.22;5116872;28;961;-69
2022/12/06 02:56:53;;;;;;;;;;;;;;;9.68;76.11;95723.38;5116704;28;1909;-70
2022/12/06 02:59:19;;;;;;;;;;;;;;;9.69;76.11;95730.38;5116831;28;921;-70
2022/12/06 03:01:48;;;;;;;;;;;;;;;9.71;76.19;95725.75;5116868;28;1011;-70
2022/12/06 03:04:33;;;;;;;;;;;;;;;9.76;76.34;95716.31;5098493;28;1357;-70
2022/12/06 03:06:59;;;;;;;;;;;;;;;9.81;75.29;95710.56;5116739;28;1023;-70
2022/12/06 03:09:40;;;;;;;;;;;;;;;9.85;74.99;95708.47;5116471;28;981;-70
2022/12/06 03:12:22;;;;;;;;;;;;;;;9.85;74.32;95716.47;5116950;28;965;-70
2022/12/06 03:14:51;;;;;;;;;;;;;;;9.85;74.02;95705.78;5116591;28;1076;-70
2022/12/06 03:17:49;;;;;;;;;;;;;;;9.65;75.02;95710.31;5116358;28;1901;-70
2022/12/06 03:20:24;;;;;;;;;;;;;;;9.61;75.50;95703.56;5060752;28;1182;-70
2022/12/06 03:22:53;;;;;;;;;;;;;;;9.71;75.48;95701.72;5116541;28;1245;-69
2022/12/06 03:25:19;;;;;;;;;;;;;;;9.73;75.63;95708.63;5116434;28;1076;-70
2022/12/06 03:27:46;;;;;;;;;;;;;;;9.74;75.74;95701.44;5116118;28;1117;-70
2022/12/06 03:30:14;;;;;;;;;;;;;;;9.73;75.78;95699.75;5116210;28;968;-70
2022/12/06 03:32:42;;;;;;;;;;;;;;;9.79;75.24;95707.22;5116019;28;1100;-70
2022/12/06 03:35:10;;;;;;;;;;;;;;;9.80;74.27;95703.53;5116102;28;1100;-70
2022/12/06 03:37:39;;;;;;;;;;;;;;;9.78;74.32;95702.84;5098018;28;1918;-70
2022/12/06 03:40:31;;;;;;;;;;;;;;;9.70;74.91;95692.03;5115970;28;1201;-70
2022/12/06 03:42:59;;;;;;;;;;;;;;;9.56;75.72;95691.50;5111380;28;1059;-70
2022/12/06 03:45:35;;;;;;;;;;;;;;;9.60;75.70;95696.53;5115910;28;1116;-70
2022/12/06 03:48:09;;;;;;;;;;;;;;;9.71;75.28;95691.91;5097145;28;1117;-70
2022/12/06 03:50:42;;;;;;;;;;;;;;;9.77;74.92;95691.31;5115775;28;1104;-70
2022/12/06 03:53:08;;;;;;;;;;;;;;;9.77;74.96;95693.16;5115733;28;1108;-70
2022/12/06 03:55:34;;;;;;;;;;;;;;;9.79;74.82;95691.19;5115427;28;1902;-70
2022/12/06 03:58:00;;;;;;;;;;;;;;;9.73;75.07;95687.25;5115803;28;1084;-70
2022/12/06 04:00:26;;;;;;;;;;;;;;;9.67;75.48;95693.16;5097423;28;1069;-70
2022/12/06 04:02:52;;;;;;;;;;;;;;;9.76;74.95;95691.47;5115567;28;1160;-69
2022/12/06 04:05:19;;;;;;;;;;;;;;;9.79;75.14;95688.50;5115488;28;1046;-70
2022/12/06 04:07:45;;;;;;;;;;;;;;;9.70;75.17;95692.03;5115413;28;965;-70
2022/12/06 04:10:11;;;;;;;;;;;;;;;9.59;75.50;95695.69;5115381;28;985;-70
2022/12/06 04:15:22;;;;;;;;;;;;;;;9.71;75.31;95694.56;5115545;28;1000;-70
2022/12/06 04:23:18;;;;;;;;;;;;;;;9.72;74.65;95695.41;5115427;28;1051;-70
2022/12/06 04:25:44;;;;;;;;;;;;;;;9.70;74.59;95694.72;5115006;28;1092;-70
2022/12/06 04:39:08;;;;;;;;;;;;;;;9.70;73.89;95686.69;5114840;28;1153;-70
2022/12/06 04:44:19;;;;;;;;;;;;;;;9.58;74.50;95692.19;5114979;28;1080;-70
2022/12/06 04:46:45;;;;;;;;;;;;;;;9.49;74.64;95690.38;5096498;28;1101;-70
2022/12/06 04:49:11;;;;;;;;;;;;;;;9.46;74.71;95697.81;5096696;28;1016;-70
2022/12/06 04:51:37;;;;;;;;;;;;;;;9.46;75.00;95687.97;5114526;28;1057;-70
2022/12/06 04:54:04;;;;;;;;;;;;;;;9.45;75.20;95683.63;5096467;28;965;-70
2022/12/06 04:56:30;;;;;;;;;;;;;;;9.49;74.51;95685.03;5114351;28;1897;-70
2022/12/06 04:58:56;;;;;;;;;;;;;;;9.46;74.42;95687.97;5114037;28;1044;-70
2022/12/06 05:01:22;;;;;;;;;;;;;;;9.44;74.56;95689.09;5114290;28;1021;-70
2022/12/06 05:03:48;;;;;;;;;;;;;;;9.47;74.70;95687.00;5114335;28;1116;-70
2022/12/06 05:06:14;;;;;;;;;;;;;;;9.49;74.54;95681.53;5114382;28;1009;-70
2022/12/06 05:08:40;;;;;;;;;;;;;;;9.56;74.41;95694.16;5114184;28;1024;-70
2022/12/06 05:11:06;;;;;;;;;;;;;;;9.56;74.06;95690.63;5114218;28;1181;-70
2022/12/06 05:13:32;;;;;;;;;;;;;;;9.50;74.12;95685.84;5114339;28;1024;-70
2022/12/06 05:16:00;;;;;;;;;;;;;;;9.47;74.16;95678.97;5114244;28;2004;-70
2022/12/06 05:18:26;;;;;;;;;;;;;;;9.45;74.44;95680.13;5095840;28;1266;-70
2022/12/06 05:21:05;;;;;;;;;;;;;;;9.43;75.00;95687.41;5114066;28;1056;-70
2022/12/06 05:23:32;;;;;;;;;;;;;;;9.48;75.32;95688.66;5114205;28;1009;-70
2022/12/06 05:25:58;;;;;;;;;;;;;;;9.56;74.57;95693.28;5114093;28;1249;-70
2022/12/06 05:28:25;;;;;;;;;;;;;;;9.55;74.64;95694.28;5114223;28;1027;-70
2022/12/06 05:30:51;;;;;;;;;;;;;;;9.60;74.92;95701.88;5095984;28;1100;-70
2022/12/06 05:33:17;;;;;;;;;;;;;;;9.63;75.02;95702.44;5113885;28;1138;-70
2022/12/06 05:35:43;;;;;;;;;;;;;;;9.65;74.56;95702.28;5114187;28;1998;-69
2022/12/06 05:38:09;;;;;;;;;;;;;;;9.56;74.97;95701.31;5113752;28;1212;-70
2022/12/06 05:40:35;;;;;;;;;;;;;;;9.55;75.08;95705.81;5113748;28;1037;-69
2022/12/06 05:43:01;;;;;;;;;;;;;;;9.60;74.65;95705.41;5113982;28;1052;-70
2022/12/06 05:45:27;;;;;;;;;;;;;;;9.54;74.96;95693.47;5113968;28;1029;-70
2022/12/06 05:47:53;;;;;;;;;;;;;;;9.54;75.39;95708.59;5113745;28;1041;-70
2022/12/06 05:50:19;;;;;;;;;;;;;;;9.53;75.75;95697.09;5113663;28;1062;-70
2022/12/06 05:52:45;;;;;;;;;;;;;;;9.61;75.07;95703.56;5095771;28;1051;-70
2022/12/06 05:55:11;;;;;;;;;;;;;;;9.62;74.95;95697.22;5113648;28;1038;-70
2022/12/06 05:57:37;;;;;;;;;;;;;;;9.61;74.59;95701.72;5113455;28;1905;-70
2022/12/06 06:00:04;;;;;;;;;;;;;;;9.61;75.13;95703.56;5113616;28;1058;-70
2022/12/06 06:02:30;;;;;;;;;;;;;;;9.64;74.72;95703.28;5095517;28;1057;-70
2022/12/06 06:04:56;;;;;;;;;;;;;;;9.55;74.78;95694.28;5113564;28;992;-70
2022/12/06 06:07:22;;;;;;;;;;;;;;;9.60;74.50;95696.53;5113856;28;997;-70
2022/12/06 06:09:48;;;;;;;;;;;;;;;9.61;74.86;95698.22;5113438;28;1093;-70
2022/12/06 06:12:14;;;;;;;;;;;;;;;9.63;74.75;95701.59;5117140;28;1050;-68
2022/12/06 06:14:40;;;;;;;;;;;;;;;9.65;74.81;95699.63;5117739;28;1049;-70
2022/12/06 06:17:06;;;;;;;;;;;;;;;9.64;74.87;95708.63;5117654;28;1914;-70
2022/12/06 06:19:32;;;;;;;;;;;;;;;9.61;73.75;95703.56;5117567;28;1036;-70
2022/12/06 06:21:58;;;;;;;;;;;;;;;9.63;73.85;95712.28;5117756;28;945;-70
2022/12/06 06:24:24;;;;;;;;;;;;;;;9.65;73.70;95710.31;5117714;28;1048;-70
2022/12/06 06:26:50;;;;;;;;;;;;;;;9.64;73.52;95712.13;5117412;28;1091;-70
2022/12/06 06:29:16;;;;;;;;;;;;;;;9.63;73.61;95709.59;5117424;28;1128;-70
2022/12/06 06:31:43;;;;;;;;;;;;;;;9.64;73.22;95706.81;5099351;28;1028;-69
2022/12/06 06:34:09;;;;;;;;;;;;;;;9.68;72.64;95708.19;5117304;28;1025;-69
2022/12/06 06:36:35;;;;;;;;;;;;;;;9.70;72.31;95716.06;5117376;28;1999;-70
2022/12/06 06:39:01;;;;;;;;;;;;;;;9.72;72.74;95709.59;5117410;28;1208;-70
2022/12/06 06:41:27;;;;;;;;;;;;;;;9.68;73.23;95712.69;5117305;28;1527;-70
2022/12/06 06:43:53;;;;;;;;;;;;;;;9.73;73.64;95718.44;5117154;28;1042;-70
2022/12/06 06:46:19;;;;;;;;;;;;;;;9.76;72.78;95718.16;5117157;28;1108;-70
2022/12/06 06:48:45;;;;;;;;;;;;;;;9.76;73.28;95711.00;5116994;28;1016;-70
2022/12/06 06:51:12;;;;;;;;;;;;;;;9.79;73.25;95715.22;5099189;28;988;-70
2022/12/06 06:53:38;;;;;;;;;;;;;;;9.83;73.14;95711.28;5116849;28;1013;-70
2022/12/06 06:56:04;;;;;;;;;;;;;;;9.84;73.50;95715.63;5116822;28;1906;-68
2022/12/06 06:58:30;;;;;;;;;;;;;;;9.90;73.08;95714.19;5116905;28;1016;-70
2022/12/06 07:00:58;;;;;;;;;;;;;;;9.88;73.02;95711.66;5116898;28;969;-70
2022/12/06 07:03:25;;;;;;;;;;;;;;;9.88;73.42;95711.66;5116685;28;1108;-70
2022/12/06 07:05:52;;;;;;;;;;;;;;;9.88;73.34;95714.34;5098692;28;1100;-70
2022/12/06 07:08:18;;;;;;;;;;;;;;;9.85;74.17;95717.31;5116728;28;1037;-70
2022/12/06 07:10:47;;;;;;;;;;;;;;;9.91;74.12;95715.91;5116709;28;961;-70
2022/12/06 07:13:17;;;;;;;;;;;;;;;9.87;74.48;95715.34;5116716;28;1044;-70
2022/12/06 07:15:43;;;;;;;;;;;;;;;9.88;74.39;95713.50;5116365;28;1905;-70
2022/12/06 07:18:09;;;;;;;;;;;;;;;9.83;74.60;95710.44;5116480;28;1016;-70
2022/12/06 07:20:36;;;;;;;;;;;;;;;9.81;74.25;95702.56;5116330;28;1100;-70
2022/12/06 07:23:03;;;;;;;;;;;;;;;9.84;74.02;95704.94;5115505;28;997;-70
2022/12/06 07:25:31;;;;;;;;;;;;;;;9.93;74.28;95705.91;5116299;28;1119;-70
2022/12/06 07:27:57;;;;;;;;;;;;;;;9.97;73.50;95716.16;5116433;28;1044;-70
2022/12/06 07:30:23;;;;;;;;;;;;;;;10.03;73.81;95712.06;5098218;28;1008;-70
2022/12/06 07:32:49;;;;;;;;;;;;;;;10.06;73.46;95709.13;5116068;28;1109;-70
2022/12/06 07:35:15;;;;;;;;;;;;;;;10.09;73.91;95707.97;5098327;28;1047;-70
2022/12/06 07:37:42;;;;;;;;;;;;;;;10.08;73.88;95711.66;5098120;28;1890;-70
2022/12/06 07:40:09;;;;;;;;;;;;;;;10.17;74.06;95710.78;5116158;28;1157;-70
2022/12/06 07:45:20;;;;;;;;;;;;;;;10.21;73.98;95690.78;5115871;28;1182;-67
2022/12/06 07:47:46;;;;;;;;;;;;;;;10.22;73.88;95696.97;5115800;28;1055;-70
2022/12/06 07:50:14;;;;;;;;;;;;;;;10.20;74.36;95691.78;5116059;28;1028;-70
2022/12/06 07:52:40;;;;;;;;;;;;;;;10.24;74.21;95692.31;5115714;28;1118;-70
2022/12/06 07:55:08;;;;;;;;;;;;;;;10.26;74.12;95695.69;5115870;28;1035;-70
2022/12/06 07:57:34;;;;;;;;;;;;;;;10.22;74.41;95689.78;5115653;28;1910;-69
2022/12/06 08:00:00;;;;;;;;;;;;;;;10.25;73.93;95684.16;5097531;28;1053;-69
2022/12/06 08:02:27;;;;;;;;;;;;;;;10.28;74.72;95697.25;5097588;28;1103;-70
2022/12/06 08:04:53;;;;;;;;;;;;;;;10.31;74.70;95698.81;5097736;28;1056;-69
2022/12/06 08:07:21;;;;;;;;;;;;;;;10.31;74.49;95705.00;5115801;28;1089;-69
2022/12/06 08:09:47;;;;;;;;;;;;;;;10.25;75.00;95707.38;5097358;28;1247;-71
2022/12/06 08:12:13;;;;;;;;;;;;;;;10.27;75.17;95711.59;5115501;28;1028;-70
2022/12/06 08:14:39;;;;;;;;;;;;;;;10.29;74.44;95693.56;5115297;28;954;-70
2022/12/06 08:17:05;;;;;;;;;;;;;;;10.27;74.54;95697.41;5115287;28;1913;-70
2022/12/06 08:19:32;;;;;;;;;;;;;;;10.26;74.54;95699.22;5115363;28;1024;-70
2022/12/06 08:21:58;;;;;;;;;;;;;;;10.25;74.94;95702.03;5115249;28;1045;-70
2022/12/06 08:24:24;;;;;;;;;;;;;;;10.26;74.86;95709.06;5115161;28;1084;-69
2022/12/06 08:26:51;;;;;;;;;;;;;;;10.07;75.62;95710.81;5096897;28;1213;-70
2022/12/06 08:29:18;;;;;;;;;;;;;;;10.07;75.87;95704.59;5115064;28;1088;-70
2022/12/06 08:31:44;;;;;;;;;;;;;;;10.11;76.08;95696.19;5115232;28;1017;-69
2022/12/06 08:34:11;;;;;;;;;;;;;;;10.28;75.13;95696.38;5114854;28;1186;-70
2022/12/06 08:36:38;;;;;;;;;;;;;;;10.32;74.29;95701.34;5114796;28;1906;-70
2022/12/06 08:39:05;;;;;;;;;;;;;;;10.25;73.80;95691.34;5114914;28;1201;-70
2022/12/06 08:44:17;;;;;;;;;;;;;;;10.28;74.17;95686.56;5114854;28;1183;-70
2022/12/06 08:46:43;;;;;;;;;;;;;;;10.23;73.84;95694.16;5096831;28;1008;-70
2022/12/06 08:49:12;;;;;;;;;;;;;;;10.18;74.28;95695.59;5114897;28;1071;-70
2022/12/06 08:51:38;;;;;;;;;;;;;;;10.30;74.03;95694.41;5114611;28;1053;-70
2022/12/06 08:54:05;;;;;;;;;;;;;;;10.39;73.80;95698.06;5114674;28;993;-70
2022/12/06 08:56:31;;;;;;;;;;;;;;;10.49;73.22;95686.38;5096330;28;1997;-70
2022/12/06 08:58:57;;;;;;;;;;;;;;;10.57;72.97;95690.09;5114515;28;1049;-73
2022/12/06 09:01:25;;;;;;;;;;;;;;;10.62;72.26;95677.97;5114539;28;1108;-72
2022/12/06 09:03:52;;;;;;;;;;;;;;;10.66;72.88;95674.03;5114178;28;1061;-74
2022/12/06 09:06:19;;;;;;;;;;;;;;;10.74;72.33;95674.13;5114459;28;1049;-74
2022/12/06 09:08:46;;;;;;;;;;;;;;;10.75;71.81;95669.63;5114258;28;1052;-74
2022/12/06 09:11:13;;;;;;;;;;;;;;;10.90;70.92;95664.59;5114293;28;1065;-74
2022/12/06 09:13:40;;;;;;;;;;;;;;;10.86;70.42;95663.22;5114209;28;1053;-74
2022/12/06 09:16:10;;;;;;;;;;;;;;;10.89;70.58;95661.09;5096293;28;2356;-74
2022/12/06 09:18:37;;;;;;;;;;;;;;;11.00;69.84;95657.34;5096408;28;1029;-71
2022/12/06 09:21:03;;;;;;;;;;;;;;;10.98;68.83;95656.66;5114199;28;1080;-72
2022/12/06 09:23:30;;;;;;;;;;;;;;;10.99;69.24;95646.81;5113985;28;1057;-72
2022/12/06 09:25:56;;;;;;;;;;;;;;;11.09;68.66;95636.88;5096141;28;1069;-72
2022/12/06 09:28:22;;;;;;;;;;;;;;;11.48;67.83;95626.69;5114333;28;1047;-71
2022/12/06 09:30:48;;;;;;;;;;;;;;;11.63;66.93;95629.66;5113945;28;1041;-72
2022/12/06 09:33:14;;;;;;;;;;;;;;;11.54;67.47;95622.53;5113947;28;1100;-72
2022/12/06 09:35:40;;;;;;;;;;;;;;;11.42;67.12;95616.59;5113932;28;1045;-72
2022/12/06 09:38:07;;;;;;;;;;;;;;;11.43;67.44;95615.59;5113655;28;1898;-73
2022/12/06 09:40:38;;;;;;;;;;;;;;;11.49;67.79;95609.59;5114043;28;989;-72
2022/12/06 09:43:24;;;;;;;;;;;;;;;11.26;67.97;95608.41;5113943;28;1033;-72
2022/12/06 09:45:53;;;;;;;;;;;;;;;11.40;68.31;95597.19;5112195;28;1277;-76
2022/12/06 09:48:29;;;;;;;;;;;;;;;11.61;66.92;95595.97;5113540;28;1100;-72
2022/12/06 09:50:55;;;;;;;;;;;;;;;11.86;65.20;95592.47;5112567;28;1207;-71
2022/12/06 09:53:30;;;;;;;;;;;;;;;12.17;65.20;95580.44;5113682;28;1107;-72
2022/12/06 09:55:57;;;;;;;;;;;;;;;12.11;64.69;95579.22;5113936;28;1989;-72
2022/12/06 09:58:29;;;;;;;;;;;;;;;11.66;67.09;95578.44;5113880;28;1052;-71
2022/12/06 10:01:22;;;;;;;;;;;;;;;11.60;66.72;95563.00;5078777;28;1650;-71
2022/12/06 10:04:03;;;;;;;;;;;;;;;11.65;66.32;95562.53;5092089;28;1098;-70
2022/12/06 10:06:33;;;;;;;;;;;;;;;11.98;65.25;95558.22;5113637;28;1045;-73
2022/12/06 10:08:59;;;;;;;;;;;;;;;12.37;63.88;95555.06;5113624;28;1072;-73
2022/12/06 10:11:28;;;;;;;;;;;;;;;12.76;63.32;95556.31;5113153;28;1299;-73
2022/12/06 10:14:30;;;;;;;;;;;;;;;14.32;57.99;95561.56;5113518;28;1128;-73
2022/12/06 10:17:08;;;;;;;;;;;;;;;18.59;48.57;95562.72;5030772;28;1910;-74
2022/12/06 10:19:35;;;;;;;;;;;;;;;23.20;39.31;95572.69;5104001;28;1239;-74
2022/12/06 10:22:10;;;;;;;;;;;;;;;25.15;34.18;95574.69;5113207;28;1213;-77
2022/12/06 10:24:39;;;;;;;;;;;;;;;26.13;33.75;95576.56;5095617;28;1722;-74
2022/12/06 10:27:24;;;;;;;;;;;;;;;25.45;33.78;95568.22;5113329;28;1096;-74
2022/12/06 10:29:50;;;;;;;;;;;;;;;21.83;38.10;95546.41;5095448;28;1017;-74
2022/12/06 10:32:19;;;;;;;;;;;;;;;20.11;41.50;95519.00;5113092;28;1209;-74
2022/12/06 10:34:55;;;;;;;;;;;;;;;19.17;43.92;95510.84;5113146;28;961;-74
2022/12/06 10:37:46;;;;;;;;;;;;;;;19.78;43.47;95517.16;5113528;28;1910;-74
2022/12/06 10:40:15;;;;;;;;;;;;;;;20.54;40.59;95524.72;5112971;28;1150;-74
2022/12/06 10:42:44;;;;;;;;;;;;;;;21.46;39.68;95524.53;5113675;28;1076;-74
2022/12/06 10:47:02;;;;;;;;;;;;;;;22.53;38.21;95532.56;5112087;28;1310;-74
2022/12/06 10:47:59;;;;;;;;;;;;;;;23.97;35.20;95523.69;5113277;28;1056;-74
2022/12/06 10:50:28;;;;;;;;;;;;;;;25.50;32.97;95522.59;5095302;28;1060;-74
2022/12/06 10:52:58;;;;;;;;;;;;;;;25.34;33.33;95520.66;5113282;28;1036;-74
2022/12/06 10:55:35;;;;;;;;;;;;;;;26.82;31.08;95530.44;5112814;28;1156;-74
2022/12/06 10:58:01;;;;;;;;;;;;;;;26.03;32.67;95516.94;5116099;28;1909;-78
2022/12/06 11:00:30;;;;;;;;;;;;;;;24.34;34.01;95501.63;5116792;28;1116;-73
2022/12/06 11:02:59;;;;;;;;;;;;;;;24.57;34.12;95496.38;5116870;28;1042;-73
2022/12/06 11:05:25;;;;;;;;;;;;;;;24.96;33.76;95488.44;5098490;28;1092;-73
2022/12/06 11:07:54;;;;;;;;;;;;;;;25.85;32.68;95496.91;5116808;28;1036;-73
2022/12/06 11:10:23;;;;;;;;;;;;;;;26.63;30.90;95502.50;5116850;28;1563;-73
2022/12/06 11:12:57;;;;;;;;;;;;;;;27.04;30.83;95491.22;5098787;28;1698;-72
2022/12/06 11:15:25;;;;;;;;;;;;;;;27.66;29.35;95495.47;5116404;28;1221;-73
2022/12/06 11:17:55;;;;;;;;;;;;;;;27.37;30.01;95501.19;5098649;28;1910;-73
2022/12/06 11:20:40;;;;;;;;;;;;;;;25.97;31.61;95485.06;5116464;28;1121;-73
2022/12/06 11:23:45;;;;;;;;;;;;;;;23.04;35.12;95467.00;5116418;28;1210;-73
2022/12/06 11:26:12;;;;;;;;;;;;;;;19.78;41.04;95447.44;5033132;28;1293;-73
2022/12/06 11:28:42;;;;;;;;;;;;;;;17.72;45.41;95429.63;5017117;28;1058;-73
2022/12/06 11:31:18;;;;;;;;;;;;;;;16.65;48.37;95406.28;5075508;28;1014;-72
2022/12/06 11:33:46;;;;;;;;;;;;;;;15.81;50.99;95394.13;5116177;28;1143;-73
2022/12/06 11:36:13;;;;;;;;;;;;;;;15.30;52.02;95402.09;5097717;28;1898;-72
2022/12/06 11:38:41;;;;;;;;;;;;;;;14.90;53.22;95390.69;5115887;28;1292;-73
2022/12/06 11:41:10;;;;;;;;;;;;;;;14.87;53.25;95392.91;5116122;28;1049;-72
2022/12/06 11:43:37;;;;;;;;;;;;;;;14.64;54.19;95393.78;5097826;28;1026;-72
2022/12/06 11:46:04;;;;;;;;;;;;;;;14.33;55.05;95389.25;5115740;28;1164;-72
2022/12/06 11:48:31;;;;;;;;;;;;;;;14.38;55.13;95405.72;5115842;28;1073;-72
2022/12/06 11:50:58;;;;;;;;;;;;;;;14.51;54.59;95402.41;5115899;28;1045;-73
2022/12/06 11:53:32;;;;;;;;;;;;;;;14.52;55.45;95398.72;5115856;28;1116;-73
2022/12/06 11:56:27;;;;;;;;;;;;;;;14.56;54.94;95394.63;5115544;28;1905;-76
2022/12/06 11:59:04;;;;;;;;;;;;;;;14.54;54.55;95398.53;5098354;28;1282;-77
2022/12/06 12:01:44;;;;;;;;;;;;;;;14.34;54.86;95400.84;5115853;28;1053;-76
2022/12/06 12:04:40;;;;;;;;;;;;;;;13.98;55.35;95404.09;5115669;28;1092;-76
2022/12/06 12:07:09;;;;;;;;;;;;;;;13.75;55.87;95404.03;5098085;28;1417;-76
2022/12/06 12:09:55;;;;;;;;;;;;;;;13.67;56.27;95404.91;5097053;28;1048;-76
2022/12/06 12:13:42;;;;;;;;;;;;;;;13.65;56.09;95399.69;5097286;28;1177;-75
2022/12/06 12:15:15;;;;;;;;;;;;;;;13.62;56.86;95396.50;5115300;28;1100;-77
2022/12/06 12:17:44;;;;;;;;;;;;;;;13.60;56.80;95399.41;5097042;28;1910;-75
2022/12/06 12:20:19;;;;;;;;;;;;;;;13.61;56.75;95392.16;5097344;28;1622;-76
2022/12/06 12:22:46;;;;;;;;;;;;;;;13.62;57.05;95383.09;5097102;28;1100;-76
2022/12/06 12:29:15;;;;;;;;;;;;;;;13.61;57.54;95387.63;5095652;28;1814;-76
2022/12/06 12:31:51;;;;;;;;;;;;;;;13.52;58.25;95375.22;5095779;28;997;-76
2022/12/06 12:34:17;;;;;;;;;;;;;;;13.46;58.28;95379.44;5096930;28;1045;-76
2022/12/06 12:36:50;;;;;;;;;;;;;;;13.52;58.47;95371.72;5114773;28;1988;-76
2022/12/06 12:39:31;;;;;;;;;;;;;;;13.55;58.56;95374.91;5114862;28;1149;-75
2022/12/06 12:41:58;;;;;;;;;;;;;;;13.56;58.23;95378.41;5114645;28;1036;-75
2022/12/06 12:44:30;;;;;;;;;;;;;;;13.52;57.50;95372.53;5114732;28;993;-76
2022/12/06 12:46:59;;;;;;;;;;;;;;;13.52;57.60;95375.22;5114963;28;1070;-76
2022/12/06 12:49:32;;;;;;;;;;;;;;;13.53;58.27;95371.56;5096890;28;985;-76
2022/12/06 12:51:59;;;;;;;;;;;;;;;13.55;57.84;95372.22;5096361;28;985;-75
2022/12/06 12:54:30;;;;;;;;;;;;;;;13.58;58.13;95368.31;5114634;28;1045;-75
2022/12/06 12:56:58;;;;;;;;;;;;;;;13.62;58.30;95375.03;5114494;28;1906;-76
2022/12/06 12:59:25;;;;;;;;;;;;;;;13.65;58.68;95369.31;5114490;28;1123;-76
2022/12/06 13:01:57;;;;;;;;;;;;;;;13.58;58.33;95358.44;5096192;28;1120;-76
2022/12/06 13:04:28;;;;;;;;;;;;;;;13.59;58.48;95353.91;5096535;28;1429;-76
2022/12/06 13:06:58;;;;;;;;;;;;;;;13.57;57.62;95355.91;5114528;28;1041;-76
2022/12/06 13:09:47;;;;;;;;;;;;;;;13.50;57.64;95354.94;5114305;28;969;-75
2022/12/06 13:12:18;;;;;;;;;;;;;;;13.41;58.82;95346.06;5103367;28;1143;-75
2022/12/06 13:14:49;;;;;;;;;;;;;;;13.40;59.12;95350.59;5096177;28;1061;-76
2022/12/06 13:17:16;;;;;;;;;;;;;;;13.33;58.42;95346.94;5114255;28;1992;-76
2022/12/06 13:19:45;;;;;;;;;;;;;;;13.28;58.44;95349.28;5113762;28;1085;-76
2022/12/06 13:22:18;;;;;;;;;;;;;;;13.24;57.92;95347.94;5113404;28;1203;-74
2022/12/06 13:24:49;;;;;;;;;;;;;;;13.21;58.41;95348.31;5114293;28;997;-75
2022/12/06 13:27:17;;;;;;;;;;;;;;;13.19;58.57;95342.28;5114228;28;1085;-75
2022/12/06 13:29:54;;;;;;;;;;;;;;;13.16;58.78;95350.66;5113858;28;1317;-75
2022/12/06 13:32:28;;;;;;;;;;;;;;;13.14;60.77;95339.25;5113757;28;1056;-75
2022/12/06 13:34:56;;;;;;;;;;;;;;;13.15;61.51;95347.13;5109650;28;1258;-75
2022/12/06 13:37:25;;;;;;;;;;;;;;;13.14;61.17;95348.13;5113912;28;1926;-75
2022/12/06 13:39:51;;;;;;;;;;;;;;;13.12;61.68;95347.47;5113804;28;1216;-75
2022/12/06 13:42:35;;;;;;;;;;;;;;;13.07;60.53;95348.00;5095657;28;1145;-76
2022/12/06 13:45:03;;;;;;;;;;;;;;;13.02;61.98;95347.66;5113728;28;1001;-75